Time;durP1;ratioP1;P1;durP2;ratioP2;P2;SDS_P1;SDS_P2;PMS_P1;PMS_P2;Temp;Humidity;BMP_temperature;BMP_pressure;BME280_temperature;BME280_humidity;BME280_pressure;Samples;Min_cycle;Max_cycle;Signal;HPM_P1;HPM_P2
2023/11/01 00:01:57;;;;;;;;;4.00;4.00;;;;;-143.90;100.00;74740.16;4989682;28;101674;-73
2023/11/01 00:04:24;;;;;;;;;2.00;2.00;;;;;-143.90;100.00;74738.09;4974050;28;101837;-71
2023/11/01 00:06:50;;;;;;;;;4.00;4.00;;;;;-143.90;100.00;74738.09;4996495;28;101852;-74
2023/11/01 00:09:17;;;;;;;;;3.00;3.00;;;;;-143.90;100.00;74740.16;4991235;28;103588;-73
2023/11/01 00:11:43;;;;;;;;;4.50;3.50;;;;;-143.90;100.00;74746.34;4985820;28;101957;-74
2023/11/01 00:14:10;;;;;;;;;5.00;5.00;;;;;-143.90;100.00;74752.56;4997550;28;101749;-73
2023/11/01 00:16:37;;;;;;;;;9.75;4.25;;;;;-143.90;100.00;74750.50;5000384;27;101370;-73
2023/11/01 00:19:03;;;;;;;;;8.00;5.00;;;;;-143.90;100.00;74750.50;4996814;27;103452;-74
2023/11/01 00:21:30;;;;;;;;;4.75;4.00;;;;;-143.90;100.00;74752.56;4994569;28;101619;-73
2023/11/01 00:23:57;;;;;;;;;4.00;3.25;;;;;-143.90;100.00;74754.63;4992039;27;101713;-73
2023/11/01 00:26:24;;;;;;;;;3.50;3.50;;;;;-143.90;100.00;74758.75;4977729;27;101608;-73
2023/11/01 00:28:50;;;;;;;;;3.00;3.00;;;;;-143.90;100.00;74764.97;4961199;27;104783;-73
2023/11/01 00:31:17;;;;;;;;;3.75;3.75;;;;;-143.90;100.00;74764.97;4995404;28;101661;-73
2023/11/01 00:33:43;;;;;;;;;2.00;2.00;;;;;-143.90;100.00;74771.16;4989269;28;101942;-73
2023/11/01 00:36:10;;;;;;;;;3.25;2.00;;;;;-143.90;100.00;74771.16;4990746;28;101894;-73
2023/11/01 00:38:37;;;;;;;;;2.50;2.50;;;;;-143.90;100.00;74775.31;5000497;27;103360;-73
2023/11/01 00:41:04;;;;;;;;;2.00;2.00;;;;;-143.90;100.00;74773.22;4994723;27;102254;-73
2023/11/01 00:43:31;;;;;;;;;3.00;3.00;;;;;-143.90;100.00;74775.31;4997377;28;101680;-73
2023/11/01 00:45:58;;;;;;;;;3.50;3.00;;;;;-143.90;100.00;74771.16;4995314;28;101977;-74
2023/11/01 00:48:25;;;;;;;;;3.50;3.00;;;;;-143.90;100.00;74777.38;4991201;27;108105;-73
2023/11/01 00:50:52;;;;;;;;;3.25;3.00;;;;;-143.90;100.00;74779.44;4987592;28;101957;-74
2023/11/01 00:53:20;;;;;;;;;3.00;2.25;;;;;-143.90;100.00;74779.44;4991023;27;101728;-74
2023/11/01 00:55:47;;;;;;;;;4.00;3.00;;;;;-143.90;100.00;74779.44;4984855;28;101698;-73
2023/11/01 00:58:14;;;;;;;;;4.75;3.75;;;;;-143.90;100.00;74779.44;4988436;28;103341;-73
2023/11/01 01:00:40;;;;;;;;;5.00;4.25;;;;;-143.90;100.00;74781.50;4988407;28;101728;-73
2023/11/01 01:03:08;;;;;;;;;4.25;4.25;;;;;-143.90;100.00;74787.69;4964457;27;102971;-72
2023/11/01 01:05:34;;;;;;;;;4.00;3.00;;;;;-143.90;100.00;74787.69;4992539;27;101635;-73
2023/11/01 01:08:01;;;;;;;;;9.25;5.25;;;;;-143.90;100.00;74781.50;4994458;28;103419;-72
2023/11/01 01:10:28;;;;;;;;;3.00;3.00;;;;;-143.90;100.00;74789.78;4995826;27;101501;-73
2023/11/01 01:12:55;;;;;;;;;3.75;3.00;;;;;-143.90;100.00;74785.63;4990312;27;102721;-73
2023/11/01 01:15:22;;;;;;;;;3.25;3.00;;;;;-143.90;100.00;74791.84;4994380;28;102223;-73
2023/11/01 01:17:49;;;;;;;;;2.00;2.00;;;;;-143.90;100.00;74795.97;4990529;28;103430;-73
2023/11/01 01:20:15;;;;;;;;;4.75;4.00;;;;;-143.90;100.00;74795.97;4995361;28;101841;-73
2023/11/01 01:22:42;;;;;;;;;3.00;3.00;;;;;-143.90;100.00;74791.84;4993776;28;101864;-74
2023/11/01 01:25:09;;;;;;;;;2.00;2.00;;;;;-143.90;100.00;74795.97;4990860;27;103752;-73
2023/11/01 01:27:35;;;;;;;;;3.00;2.00;;;;;-143.90;100.00;74795.97;4979625;28;103847;-73
2023/11/01 01:30:03;;;;;;;;;7.00;5.00;;;;;-143.90;100.00;74804.25;4839934;27;101690;-74
2023/11/01 01:32:31;;;;;;;;;3.75;3.00;;;;;-143.90;100.00;74804.25;4960511;27;104966;-73
2023/11/01 01:34:58;;;;;;;;;3.00;2.50;;;;;-143.90;100.00;74802.16;4975148;27;102990;-73
2023/11/01 01:37:25;;;;;;;;;3.25;2.75;;;;;-143.90;100.00;74812.50;4981453;28;103563;-72
2023/11/01 01:39:52;;;;;;;;;6.00;5.50;;;;;-143.90;100.00;74812.50;4996156;27;102877;-72
2023/11/01 01:42:19;;;;;;;;;2.00;2.00;;;;;-143.90;100.00;74804.25;4991885;27;103532;-74
2023/11/01 01:44:45;;;;;;;;;5.00;5.00;;;;;-143.90;100.00;74808.38;4984397;27;101959;-73
2023/11/01 01:47:12;;;;;;;;;5.50;4.75;;;;;-143.90;100.00;74816.66;4987266;27;103402;-73
2023/11/01 01:49:39;;;;;;;;;5.00;5.00;;;;;-143.90;100.00;74820.78;4982562;28;102038;-74
2023/11/01 01:52:11;;;;;;;;;5.25;5.00;;;;;-143.90;100.00;74810.44;4968096;28;101907;-73
2023/11/01 01:54:38;;;;;;;;;6.00;5.00;;;;;-143.90;100.00;74829.03;4987167;27;101818;-73
2023/11/01 01:57:05;;;;;;;;;4.75;4.50;;;;;-143.90;100.00;74816.66;4985154;27;102997;-71
2023/11/01 01:59:32;;;;;;;;;5.00;5.00;;;;;-143.90;100.00;74814.56;4993184;27;102415;-73
2023/11/01 02:01:59;;;;;;;;;4.75;4.00;;;;;-143.90;100.00;74808.38;4984011;27;101634;-73
2023/11/01 02:04:26;;;;;;;;;3.75;3.75;;;;;-143.90;100.00;74816.66;4995467;27;103116;-73
2023/11/01 02:06:53;;;;;;;;;3.75;2.00;;;;;-143.90;100.00;74812.50;4963774;27;103675;-73
2023/11/01 02:09:20;;;;;;;;;7.00;4.25;;;;;-143.90;100.00;74816.66;4987257;27;101706;-74
2023/11/01 02:11:46;;;;;;;;;3.25;3.25;;;;;-143.90;100.00;74810.44;4981406;28;101712;-73
2023/11/01 02:14:13;;;;;;;;;2.75;2.75;;;;;-143.90;100.00;74818.72;4984401;27;102254;-73
2023/11/01 02:16:40;;;;;;;;;4.75;3.50;;;;;-143.90;100.00;74816.66;4996100;28;103334;-72
2023/11/01 02:19:08;;;;;;;;;4.25;3.00;;;;;-143.90;100.00;74814.56;5000227;28;101843;-73
2023/11/01 02:21:36;;;;;;;;;4.25;4.00;;;;;-143.90;100.00;74814.56;4968053;28;103161;-74
2023/11/01 02:24:03;;;;;;;;;4.75;3.00;;;;;-143.90;100.00;74816.66;4990961;27;101692;-73
2023/11/01 02:26:30;;;;;;;;;5.25;3.25;;;;;-143.90;100.00;74814.56;4986262;27;103469;-73
2023/11/01 02:28:56;;;;;;;;;4.50;4.25;;;;;-143.90;100.00;74812.50;4973217;28;101761;-72
2023/11/01 02:31:23;;;;;;;;;4.00;3.75;;;;;-143.90;100.00;74814.56;4996697;27;101868;-73
2023/11/01 02:33:50;;;;;;;;;4.00;4.00;;;;;-143.90;100.00;74816.66;4997573;27;101925;-73
2023/11/01 02:36:16;;;;;;;;;4.00;3.25;;;;;-143.90;100.00;74816.66;4960940;28;103804;-73
2023/11/01 02:38:43;;;;;;;;;4.50;4.00;;;;;-143.90;100.00;74833.19;4985335;28;101935;-72
2023/11/01 02:41:09;;;;;;;;;5.00;4.00;;;;;-143.90;100.00;74826.97;4982688;27;101609;-73
2023/11/01 02:43:36;;;;;;;;;4.75;3.25;;;;;-143.90;100.00;74833.19;4988182;28;101602;-72
2023/11/01 02:46:03;;;;;;;;;5.00;4.00;;;;;-143.90;100.00;74831.13;4993439;28;103445;-73
2023/11/01 02:48:29;;;;;;;;;4.25;3.00;;;;;-143.90;100.00;74837.31;4977814;28;102871;-73
2023/11/01 02:50:56;;;;;;;;;4.75;4.25;;;;;-143.90;100.00;74837.31;4988174;28;101856;-73
2023/11/01 02:53:23;;;;;;;;;4.00;4.00;;;;;-143.90;100.00;74837.31;4996849;28;102026;-73
2023/11/01 02:55:50;;;;;;;;;2.50;2.50;;;;;-143.90;100.00;74837.31;4991791;28;103324;-73
2023/11/01 02:58:17;;;;;;;;;5.00;4.25;;;;;-143.90;100.00;74839.38;4994460;28;101523;-72
2023/11/01 03:00:43;;;;;;;;;3.00;2.00;;;;;-143.90;100.00;74851.78;4988367;28;101497;-73
2023/11/01 03:03:11;;;;;;;;;3.00;2.00;;;;;-143.90;100.00;74841.44;4985696;28;101620;-72
2023/11/01 03:05:37;;;;;;;;;3.50;3.50;;;;;-143.90;100.00;74855.91;4992863;28;108391;-72
2023/11/01 03:08:04;;;;;;;;;4.50;3.75;;;;;-143.90;100.00;74866.25;4999136;27;101556;-72
2023/11/01 03:10:31;;;;;;;;;3.00;3.00;;;;;-143.90;100.00;74866.25;4991686;28;101561;-73
2023/11/01 03:12:57;;;;;;;;;4.00;4.00;;;;;-143.90;100.00;74868.31;4993426;27;101961;-73
2023/11/01 03:15:24;;;;;;;;;4.00;3.00;;;;;-143.90;100.00;74866.25;4992530;27;103364;-73
2023/11/01 03:17:50;;;;;;;;;2.75;2.75;;;;;-143.90;100.00;74868.31;4997234;28;102025;-73
2023/11/01 03:20:17;;;;;;;;;4.50;2.75;;;;;-143.90;100.00;74866.25;4999129;27;101617;-73
2023/11/01 03:22:44;;;;;;;;;4.00;3.50;;;;;-143.90;100.00;74866.25;4995090;28;102040;-73
2023/11/01 03:25:10;;;;;;;;;4.00;3.75;;;;;-143.90;100.00;74874.53;4988438;28;103624;-72
2023/11/01 03:27:37;;;;;;;;;3.25;2.75;;;;;-143.90;100.00;74874.53;4990037;28;102034;-74
2023/11/01 03:30:04;;;;;;;;;3.00;2.00;;;;;-143.90;100.00;74870.38;4995473;27;101652;-73
2023/11/01 03:32:31;;;;;;;;;4.75;3.75;;;;;-143.90;100.00;74878.66;4980833;27;101966;-73
2023/11/01 03:34:58;;;;;;;;;4.00;3.50;;;;;-143.90;100.00;74872.47;4991042;28;103639;-73
2023/11/01 03:37:24;;;;;;;;;3.00;2.75;;;;;-143.90;100.00;74876.59;4993799;27;101833;-75
2023/11/01 03:39:51;;;;;;;;;2.50;2.00;;;;;-143.90;100.00;74870.38;4990678;27;101731;-73
2023/11/01 03:42:20;;;;;;;;;1.00;1.00;;;;;-143.90;100.00;74870.38;4972566;28;101948;-73
2023/11/01 03:44:49;;;;;;;;;2.00;2.00;;;;;-143.90;100.00;74870.38;4971452;28;103291;-74
2023/11/01 03:47:16;;;;;;;;;2.75;2.75;;;;;-143.90;100.00;74882.78;4994047;27;101574;-73
2023/11/01 03:49:44;;;;;;;;;3.00;3.00;;;;;-143.90;100.00;74882.78;4990487;28;101520;-74
2023/11/01 03:52:11;;;;;;;;;2.75;2.75;;;;;-143.90;100.00;74882.78;4987470;28;101933;-73
2023/11/01 03:54:38;;;;;;;;;3.25;2.75;;;;;-143.90;100.00;74880.72;4996331;28;103991;-74
2023/11/01 03:57:04;;;;;;;;;2.00;2.00;;;;;-143.90;100.00;74882.78;4979244;28;101746;-73
2023/11/01 03:59:31;;;;;;;;;2.50;2.50;;;;;-143.90;100.00;74884.88;4975039;28;101841;-73
2023/11/01 04:01:59;;;;;;;;;2.00;2.00;;;;;-143.90;100.00;74884.88;4975831;28;102652;-75
2023/11/01 04:04:25;;;;;;;;;3.00;2.25;;;;;-143.90;100.00;74891.06;4989406;27;103503;-72
2023/11/01 04:06:52;;;;;;;;;3.00;2.50;;;;;-143.90;100.00;74895.19;4995518;28;101715;-73
2023/11/01 04:09:18;;;;;;;;;3.25;3.25;;;;;-143.90;100.00;74891.06;4989974;28;102540;-73
2023/11/01 04:11:45;;;;;;;;;3.00;2.25;;;;;-143.90;100.00;74891.06;4994722;27;102329;-73
2023/11/01 04:14:12;;;;;;;;;1.50;1.50;;;;;-143.90;100.00;74886.94;4985319;28;103439;-73
2023/11/01 04:16:39;;;;;;;;;4.00;3.00;;;;;-143.90;100.00;74895.19;4995250;27;101829;-73
2023/11/01 04:19:06;;;;;;;;;2.00;2.00;;;;;-143.90;100.00;74899.34;4997228;28;101966;-73
2023/11/01 04:21:32;;;;;;;;;4.00;3.00;;;;;-143.90;100.00;74899.34;5000727;27;101617;-73
2023/11/01 04:23:59;;;;;;;;;3.75;2.00;;;;;-143.90;100.00;74899.34;4992972;27;103549;-73
2023/11/01 04:26:26;;;;;;;;;2.00;2.00;;;;;-143.90;100.00;74907.59;4992517;28;101683;-73
2023/11/01 04:28:53;;;;;;;;;3.25;2.00;;;;;-143.90;100.00;74907.59;4992554;28;101568;-73
2023/11/01 04:31:24;;;;;;;;;2.00;2.00;;;;;-143.90;100.00;74905.53;4974643;28;101911;-73
2023/11/01 04:33:54;;;;;;;;;1.00;1.00;;;;;-143.90;100.00;74901.41;4986168;27;103443;-74
2023/11/01 04:36:24;;;;;;;;;2.00;2.00;;;;;-143.90;100.00;74899.34;4987095;28;101750;-73
2023/11/01 04:38:57;;;;;;;;;1.00;1.00;;;;;-143.90;100.00;74905.53;4981762;27;101481;-74
2023/11/01 04:41:26;;;;;;;;;3.00;2.00;;;;;-143.90;100.00;74903.47;4988049;27;101546;-74
2023/11/01 04:43:54;;;;;;;;;1.50;1.50;;;;;-143.90;100.00;74905.53;4991300;27;103720;-74
2023/11/01 04:46:21;;;;;;;;;1.00;1.00;;;;;-143.90;100.00;74903.47;4983126;28;101941;-73
2023/11/01 04:48:49;;;;;;;;;2.00;2.00;;;;;-143.90;100.00;74907.59;4962451;28;103573;-73
2023/11/01 04:51:15;;;;;;;;;1.50;1.00;;;;;-143.90;100.00;74913.81;4984956;28;101885;-73
2023/11/01 04:53:42;;;;;;;;;1.00;1.00;;;;;-143.90;100.00;74917.94;4982516;28;103594;-73
2023/11/01 04:56:09;;;;;;;;;1.00;1.00;;;;;-143.90;100.00;74917.94;4978694;28;101726;-71
2023/11/01 04:58:36;;;;;;;;;1.75;1.75;;;;;-143.90;100.00;74917.94;4997928;27;101787;-74
2023/11/01 05:01:05;;;;;;;;;1.00;1.00;;;;;-143.90;100.00;74917.94;4994374;27;101903;-72
2023/11/01 05:03:33;;;;;;;;;1.25;1.00;;;;;-143.90;100.00;74920.00;4986762;28;104117;-73
2023/11/01 05:06:00;;;;;;;;;3.25;3.00;;;;;-143.90;100.00;74926.22;4993513;28;101711;-73
2023/11/01 05:08:28;;;;;;;;;3.50;3.00;;;;;-143.90;100.00;74928.28;4996424;28;102119;-73
2023/11/01 05:10:54;;;;;;;;;3.00;2.00;;;;;-143.90;100.00;74930.34;4992777;28;101790;-73
2023/11/01 05:13:21;;;;;;;;;2.50;2.00;;;;;-143.90;100.00;74926.22;4995409;27;103354;-73
2023/11/01 05:15:48;;;;;;;;;2.00;1.50;;;;;-143.90;100.00;74928.28;4991101;28;104090;-72
2023/11/01 05:18:14;;;;;;;;;2.25;2.00;;;;;-143.90;100.00;74932.41;4985612;27;101575;-73
2023/11/01 05:20:41;;;;;;;;;2.00;2.00;;;;;-143.90;100.00;74936.53;4993579;28;101993;-74
2023/11/01 05:23:08;;;;;;;;;2.50;2.00;;;;;-143.90;100.00;74936.53;4993833;27;104174;-74
2023/11/01 05:25:34;;;;;;;;;4.00;4.00;;;;;-143.90;100.00;74942.75;4989055;27;101692;-73
2023/11/01 05:28:01;;;;;;;;;3.00;3.00;;;;;-143.90;100.00;74940.69;4989356;27;101613;-73
2023/11/01 05:30:27;;;;;;;;;3.75;3.75;;;;;-143.90;100.00;74959.28;4991903;28;101950;-72
2023/11/01 05:32:54;;;;;;;;;6.00;5.00;;;;;-143.90;100.00;74959.28;4984891;27;103603;-73
2023/11/01 05:35:21;;;;;;;;;4.75;4.75;;;;;-143.90;100.00;74961.34;4984750;27;101912;-74
2023/11/01 05:37:47;;;;;;;;;5.25;5.25;;;;;-143.90;100.00;74959.28;4992145;27;101653;-73
2023/11/01 05:40:14;;;;;;;;;5.25;4.00;;;;;-143.90;100.00;74959.28;4967681;28;101712;-72
2023/11/01 05:42:43;;;;;;;;;8.00;5.50;;;;;-143.90;100.00;74967.56;4986209;27;103371;-74
2023/11/01 05:45:17;;;;;;;;;8.00;7.00;;;;;-143.90;100.00;74969.63;4992026;27;102547;-71
2023/11/01 05:47:51;;;;;;;;;5.00;5.00;;;;;-143.90;100.00;74973.75;4993364;27;101778;-74
2023/11/01 05:50:24;;;;;;;;;4.75;4.00;;;;;-143.90;100.00;74969.63;4997727;28;101823;-73
2023/11/01 05:52:53;;;;;;;;;5.75;4.75;;;;;-143.90;100.00;74979.97;4993033;28;103337;-72
2023/11/01 05:55:20;;;;;;;;;4.50;4.00;;;;;-143.90;100.00;74973.75;4992051;28;101872;-73
2023/11/01 05:57:59;;;;;;;;;4.50;4.00;;;;;-143.90;100.00;74977.88;5002130;27;101804;-74
2023/11/01 06:00:25;;;;;;;;;3.25;3.00;;;;;-143.90;100.00;74982.03;4991738;27;101887;-73
2023/11/01 06:02:52;;;;;;;;;3.00;3.00;;;;;-143.90;100.00;74982.03;4974803;28;103514;-73
2023/11/01 06:05:22;;;;;;;;;5.00;4.00;;;;;-143.90;100.00;74990.28;4966376;28;101575;-74
2023/11/01 06:07:49;;;;;;;;;5.50;4.00;;;;;-143.90;100.00;74994.44;4988792;28;101761;-73
2023/11/01 06:10:16;;;;;;;;;6.00;3.50;;;;;-143.90;100.00;74994.44;4992070;28;102022;-74
2023/11/01 06:12:43;;;;;;;;;5.50;5.50;;;;;-143.90;100.00;74996.50;4993291;27;103545;-73
2023/11/01 06:15:10;;;;;;;;;7.00;5.00;;;;;-143.90;100.00;74998.56;4988728;28;101625;-70
2023/11/01 06:17:40;;;;;;;;;4.75;4.75;;;;;-143.90;100.00;74996.50;4994953;28;101686;-73
2023/11/01 06:20:07;;;;;;;;;8.75;4.75;;;;;-143.90;100.00;75002.69;4996290;28;101796;-73
2023/11/01 06:22:34;;;;;;;;;4.75;4.00;;;;;-143.90;100.00;74998.56;5001446;27;103787;-73
2023/11/01 06:25:01;;;;;;;;;4.25;3.25;;;;;-143.90;100.00;74998.56;4998175;27;103031;-73
2023/11/01 06:27:30;;;;;;;;;3.00;3.00;;;;;-143.90;100.00;74992.38;4999786;27;102095;-73
2023/11/01 06:29:57;;;;;;;;;3.75;2.00;;;;;-143.90;100.00;74990.28;4994011;28;101762;-73
2023/11/01 06:32:24;;;;;;;;;4.50;2.25;;;;;-143.90;100.00;74986.16;4996910;28;103906;-72
2023/11/01 06:34:50;;;;;;;;;2.25;2.00;;;;;-143.90;100.00;74977.88;4992338;28;103315;-73
2023/11/01 06:37:17;;;;;;;;;3.00;3.00;;;;;-143.90;100.00;74982.03;4995486;28;101644;-73
2023/11/01 06:39:44;;;;;;;;;4.00;3.00;;;;;-143.90;100.00;74982.03;4997394;28;101683;-74
2023/11/01 06:42:10;;;;;;;;;4.00;3.00;;;;;-143.90;100.00;74984.09;4990412;28;103573;-72
2023/11/01 06:44:37;;;;;;;;;3.25;2.75;;;;;-143.90;100.00;74986.16;4991744;28;101716;-73
2023/11/01 06:47:04;;;;;;;;;1.50;1.50;;;;;-143.90;100.00;74982.03;4993256;28;101768;-74
2023/11/01 06:49:34;;;;;;;;;3.00;2.50;;;;;-143.90;100.00;74973.75;4973166;28;102912;-73
2023/11/01 06:52:01;;;;;;;;;3.50;2.50;;;;;-143.90;100.00;74963.41;4988134;28;107236;-73
2023/11/01 06:54:28;;;;;;;;;2.00;2.00;;;;;-143.90;100.00;74961.34;4983731;28;102152;-74
2023/11/01 06:56:56;;;;;;;;;2.75;2.00;;;;;-143.90;100.00;74961.34;4993258;28;101963;-74
2023/11/01 06:59:23;;;;;;;;;3.75;3.00;;;;;-143.90;100.00;74957.22;4995287;27;102066;-73
2023/11/01 07:01:49;;;;;;;;;3.75;3.00;;;;;-143.90;100.00;74959.28;4985974;28;104423;-74
2023/11/01 07:04:16;;;;;;;;;3.25;2.00;;;;;-143.90;100.00;74953.09;4989474;28;101887;-74
2023/11/01 07:06:43;;;;;;;;;4.00;3.00;;;;;-143.90;100.00;74940.69;4998288;27;102054;-74
2023/11/01 07:09:09;;;;;;;;;3.50;3.50;;;;;-143.90;100.00;74932.41;4992625;27;101851;-74
2023/11/01 07:11:36;;;;;;;;;5.00;3.00;;;;;-143.90;100.00;74928.28;4998196;28;102921;-75
2023/11/01 07:14:06;;;;;;;;;3.00;3.00;;;;;-143.90;100.00;74924.13;4991920;28;101868;-74
2023/11/01 07:16:35;;;;;;;;;5.00;5.00;;;;;-143.90;100.00;74930.34;4990090;28;101573;-73
2023/11/01 07:19:02;;;;;;;;;5.00;4.00;;;;;-143.90;100.00;74924.13;4987229;28;101596;-73
2023/11/01 07:21:29;;;;;;;;;4.75;3.00;;;;;-143.90;100.00;74903.47;4991227;28;103575;-76
2023/11/01 07:23:55;;;;;;;;;2.00;2.00;;;;;-143.90;100.00;74907.59;4998113;28;107396;-74
2023/11/01 07:26:22;;;;;;;;;3.50;2.75;;;;;-143.90;100.00;74909.66;4964748;28;101709;-73
2023/11/01 07:28:49;;;;;;;;;3.00;3.00;;;;;-143.90;100.00;74907.59;4990327;28;101949;-73
2023/11/01 07:31:16;;;;;;;;;4.00;4.00;;;;;-143.90;100.00;74911.72;4976023;28;104787;-73
2023/11/01 07:33:43;;;;;;;;;5.00;4.00;;;;;-143.90;100.00;74907.59;4975719;28;101995;-74
2023/11/01 07:36:10;;;;;;;;;6.00;4.00;;;;;-143.90;100.00;74915.88;4985414;28;101605;-73
2023/11/01 07:38:37;;;;;;;;;3.50;3.00;;;;;-143.90;100.00;74911.72;4982074;28;101936;-75
2023/11/01 07:41:08;;;;;;;;;3.00;3.00;;;;;-143.90;100.00;74924.13;4978293;28;103488;-74
2023/11/01 07:43:35;;;;;;;;;2.00;2.00;;;;;-143.90;100.00;74920.00;4987165;28;102110;-73
2023/11/01 07:46:02;;;;;;;;;4.00;4.00;;;;;-143.90;100.00;74932.41;4990820;27;101566;-73
2023/11/01 07:48:28;;;;;;;;;4.75;4.00;;;;;-143.90;100.00;74917.94;4992811;28;101799;-75
2023/11/01 07:50:55;;;;;;;;;4.00;4.00;;;;;-143.90;100.00;74905.53;4967426;28;107772;-74
2023/11/01 07:53:22;;;;;;;;;3.25;3.00;;;;;-143.90;100.00;74895.19;4984619;28;103386;-72
2023/11/01 07:55:49;;;;;;;;;3.00;3.00;;;;;-143.90;100.00;74882.78;4979958;28;102177;-74
2023/11/01 07:58:19;;;;;;;;;4.00;3.00;;;;;-143.90;100.00;74880.72;4981420;28;102776;-73
2023/11/01 08:00:46;;;;;;;;;4.00;3.00;;;;;-143.90;100.00;74866.25;4964821;28;103516;-72
2023/11/01 08:03:12;;;;;;;;;1.25;1.25;;;;;-143.90;100.00;74845.59;4992691;28;101835;-73
2023/11/01 08:05:39;;;;;;;;;3.00;2.50;;;;;-143.90;100.00;74835.25;4987580;28;101871;-74
2023/11/01 08:08:06;;;;;;;;;3.00;3.00;;;;;-143.90;100.00;74812.50;4989511;28;101701;-74
2023/11/01 08:10:33;;;;;;;;;3.00;1.50;;;;;-143.90;100.00;74800.09;4968017;28;103438;-73
2023/11/01 08:12:59;;;;;;;;;1.75;1.75;;;;;-143.90;97.21;74787.69;4986644;28;102375;-73
2023/11/01 08:15:26;;;;;;;;;2.00;2.00;;;;;-143.90;98.62;74787.69;4969521;28;101609;-72
2023/11/01 08:17:53;;;;;;;;;3.25;2.00;;;;;-143.90;97.29;74787.69;4984725;27;102466;-72
2023/11/01 08:20:20;;;;;;;;;1.25;1.00;;;;;-143.90;96.52;74758.75;4972899;28;102931;-74
2023/11/01 08:22:46;;;;;;;;;2.00;2.00;;;;;-143.90;97.80;74748.44;4988406;28;102083;-74
2023/11/01 08:25:13;;;;;;;;;2.00;2.00;;;;;-143.90;95.22;74744.28;4991129;28;101503;-73
2023/11/01 08:27:39;;;;;;;;;1.00;1.00;;;;;-143.90;93.71;74750.50;4987848;28;101627;-74
2023/11/01 08:30:08;;;;;;;;;1.75;1.00;;;;;-143.90;94.70;74738.09;4983737;27;104564;-74
2023/11/01 08:32:35;;;;;;;;;1.25;1.00;;;;;-143.90;96.62;74729.81;4987486;27;102215;-74
2023/11/01 08:35:03;;;;;;;;;2.00;1.00;;;;;-143.90;93.90;74723.63;4993847;27;101868;-73
2023/11/01 08:37:29;;;;;;;;;1.00;1.00;;;;;-143.90;94.59;74709.16;4997107;27;101802;-73
2023/11/01 08:39:56;;;;;;;;;1.00;1.00;;;;;-143.90;91.84;74692.63;4991622;27;108756;-74
2023/11/01 08:42:22;;;;;;;;;1.00;1.00;;;;;-143.90;93.50;74676.06;4999852;27;101619;-74
2023/11/01 08:44:49;;;;;;;;;1.00;0.00;;;;;-143.90;92.86;74676.06;4993994;28;102051;-73
2023/11/01 08:47:31;;;;;;;;;2.00;2.00;;;;;-143.90;90.38;74684.34;4992075;28;101913;-75
2023/11/01 08:49:58;;;;;;;;;2.00;2.00;;;;;-143.90;90.46;74692.63;4991098;28;107451;-75
2023/11/01 08:52:24;;;;;;;;;1.00;1.00;;;;;-143.90;92.15;74682.28;4997943;28;102394;-73
2023/11/01 08:54:51;;;;;;;;;1.00;1.00;;;;;-143.90;91.30;74680.22;4995803;28;101875;-72
2023/11/01 08:57:22;;;;;;;;;1.00;1.00;;;;;-143.90;89.88;74680.22;4997642;27;101561;-72
2023/11/01 08:59:53;;;;;;;;;1.75;1.00;;;;;-143.90;91.33;74684.34;4990367;27;103949;-75
2023/11/01 09:02:20;;;;;;;;;1.00;1.00;;;;;-143.90;90.86;74676.06;4987046;28;101663;-73
2023/11/01 09:04:47;;;;;;;;;3.25;3.00;;;;;-143.90;91.79;74667.81;4988521;27;107687;-75
2023/11/01 09:07:13;;;;;;;;;4.00;2.50;;;;;-143.90;90.68;74659.53;4994847;27;101612;-73
2023/11/01 09:09:40;;;;;;;;;1.00;0.25;;;;;-143.90;91.18;74649.19;4974884;28;105068;-74
2023/11/01 09:12:07;;;;;;;;;2.00;1.75;;;;;-143.90;87.23;74651.28;4979627;28;101672;-72
2023/11/01 09:14:33;;;;;;;;;2.00;1.00;;;;;-143.90;87.63;74647.13;4991557;28;101719;-72
2023/11/01 09:17:00;;;;;;;;;1.25;0.00;;;;;-143.90;91.66;74634.72;4994331;27;102048;-74
2023/11/01 09:19:28;;;;;;;;;2.25;1.00;;;;;-143.90;88.46;74628.53;4992605;28;103374;-74
2023/11/01 09:21:55;;;;;;;;;1.00;1.00;;;;;-143.90;86.17;74618.19;4986018;28;101780;-74
2023/11/01 09:24:22;;;;;;;;;3.00;1.75;;;;;-143.90;88.03;74605.78;4995722;28;102032;-75
2023/11/01 09:26:49;;;;;;;;;1.00;1.00;;;;;-143.90;85.88;74601.66;4996891;28;101528;-75
2023/11/01 09:29:15;;;;;;;;;4.25;2.25;;;;;-143.90;86.78;74581.00;4978500;27;103684;-74
2023/11/01 09:31:42;;;;;;;;;3.00;3.00;;;;;-143.90;85.05;74560.31;4984420;28;101766;-74
2023/11/01 09:34:09;;;;;;;;;4.50;2.00;;;;;-143.90;83.54;74562.38;4964398;28;106236;-74
2023/11/01 09:36:35;;;;;;;;;2.00;1.00;;;;;-143.90;82.24;74568.59;4995852;28;102065;-72
2023/11/01 09:39:03;;;;;;;;;2.50;2.00;;;;;-143.90;84.88;74560.31;4990467;28;103546;-75
2023/11/01 09:41:41;;;;;;;;;1.00;1.00;;;;;-143.90;86.03;74535.50;5000474;27;102989;-74
2023/11/01 09:44:15;;;;;;;;;0.00;0.00;;;;;-143.90;83.62;74518.97;4991222;27;101630;-74
2023/11/01 09:46:43;;;;;;;;;1.75;1.00;;;;;-143.90;85.71;74514.84;4985104;27;101959;-73
2023/11/01 09:49:11;;;;;;;;;2.75;2.00;;;;;-143.90;82.29;74525.19;4997479;27;105678;-73
2023/11/01 09:51:38;;;;;;;;;1.25;1.00;;;;;-143.90;81.20;74527.25;4993085;28;101695;-75
2023/11/01 09:54:05;;;;;;;;;1.25;1.00;;;;;-143.90;80.12;74531.38;4992065;27;101796;-74
2023/11/01 09:56:33;;;;;;;;;1.00;1.00;;;;;-143.90;81.67;74523.09;4994567;27;101854;-75
2023/11/01 09:59:00;;;;;;;;;1.00;1.00;;;;;-143.90;81.86;74523.09;4992793;28;111665;-74
2023/11/01 10:01:27;;;;;;;;;2.00;1.00;;;;;-143.90;80.42;74518.97;4974904;28;101646;-74
2023/11/01 10:03:56;;;;;;;;;1.75;1.00;;;;;-143.90;79.89;74483.84;4998228;27;101552;-75
2023/11/01 10:06:26;;;;;;;;;1.75;1.00;;;;;-143.90;80.03;74479.69;4999001;27;101853;-73
2023/11/01 10:08:54;;;;;;;;;1.00;0.75;;;;;-143.90;79.28;74444.56;4986517;27;103571;-74
2023/11/01 10:11:22;;;;;;;;;0.25;0.25;;;;;-143.90;76.43;74456.97;4993417;28;101540;-73
2023/11/01 10:13:49;;;;;;;;;1.00;1.00;;;;;-143.90;77.83;74456.97;4990644;27;101600;-74
2023/11/01 10:16:16;;;;;;;;;1.00;1.00;;;;;-143.90;77.05;74461.09;4997679;27;101961;-74
2023/11/01 10:18:43;;;;;;;;;1.00;1.00;;;;;-143.90;77.18;74452.84;4990024;27;103384;-74
2023/11/01 10:21:10;;;;;;;;;1.00;0.25;;;;;-143.90;78.06;74440.44;4995208;27;101738;-73
2023/11/01 10:23:37;;;;;;;;;2.67;1.00;;;;;-143.90;75.85;74465.22;4900586;28;102807;-71
2023/11/01 10:26:04;;;;;;;;;1.00;0.00;;;;;-143.90;76.73;74477.63;4985254;27;102072;-73
2023/11/01 10:28:39;;;;;;;;;1.00;1.00;;;;;-143.90;76.64;74492.09;4986153;27;108084;-73
2023/11/01 10:31:05;;;;;;;;;0.00;0.00;;;;;-143.90;76.53;74506.56;4996179;27;101896;-71
2023/11/01 10:33:33;;;;;;;;;1.00;1.00;;;;;-143.90;77.04;74512.78;4997557;27;101564;-74
2023/11/01 10:36:01;;;;;;;;;0.00;0.00;;;;;-143.90;77.98;74523.09;4990365;28;101623;-75
2023/11/01 10:38:30;;;;;;;;;1.00;1.00;;;;;-143.90;79.46;74523.09;4995592;27;103581;-74
2023/11/01 10:41:02;;;;;;;;;1.00;0.00;;;;;-143.90;80.79;74512.78;4995038;28;102352;-74
2023/11/01 10:43:29;;;;;;;;;1.00;0.25;;;;;-143.90;79.38;74510.72;4995647;28;101858;-74
2023/11/01 10:45:58;;;;;;;;;0.25;0.00;;;;;-143.90;79.39;74510.72;4991500;28;102094;-74
2023/11/01 10:48:27;;;;;;;;;0.25;0.25;;;;;-143.90;80.39;74502.44;4987049;28;103548;-75
2023/11/01 10:50:56;;;;;;;;;0.75;0.75;;;;;-143.90;77.94;74498.31;4992230;27;101932;-75
2023/11/01 10:53:23;;;;;;;;;1.50;1.50;;;;;-143.90;81.30;74502.44;4999413;27;101618;-74
2023/11/01 10:55:51;;;;;;;;;2.25;1.50;;;;;-143.90;81.02;74483.84;4992393;27;102601;-73
2023/11/01 10:58:27;;;;;;;;;3.00;1.00;;;;;-143.90;79.77;74477.63;4975217;28;103573;-72
2023/11/01 11:01:09;;;;;;;;;2.00;1.00;;;;;-143.90;80.49;74463.16;4989463;27;101975;-73
2023/11/01 11:03:43;;;;;;;;;0.50;0.50;;;;;-143.90;81.40;74442.50;4998278;27;101729;-73
2023/11/01 11:06:15;;;;;;;;;1.00;0.25;;;;;-143.90;79.88;74421.81;4995943;27;101791;-72